< < Back
Terminal Aerodrome Forecast


Current Version              Previous Versions:   1  2  3  4  5  6  7  8  9  

Terminal Aerodrome Forecast

566
FTUS42 KFFC 060538
TAFCSG
TAF
KCSG 060538Z 0606/0706 04005KT P6SM FEW250
     FM061500 08006KT P6SM SCT150 BKN250
     FM062100 04005KT P6SM SCT050 BKN100=

Latest METAR

337
SAUS70 KWBC 060854
MTRCSG
METAR KCSG 060851Z AUTO 00000KT 10SM CLR 00/M06 A3035 RMK AO2 SLP277
T00001056 58006


USA.gov is the U.S. government's official web portal to all federal, state and local government web resources and services.